Salt Lake City, Utah
Traffic Map
Current Weather Conditions
Salt Lake City, Utah
Broken Clouds
Broken Clouds
24°
Feels Like: 24°
Wind Chill: 24° Ceiling: 20000
Heat Index: 24° Visibility: 10mi
Dew Point: 10° Wind: 8mph
Humidity: 41% Direction: 160° (SSE)
Pressure: 30in Gusts: 0mph
Raw Report DataKSLC 031153Z 16007KT 10SM BKN200 24/10 A3000 RMK AO2 SLP091 T02390100 10272 20239 53004
Traffic Incident Summary
Active as of:
Severity:
Category:
InformationThere was an issue retrieving the traffic information for this location. Please try a different location or try again shortly.
Advertisements
Track Severe Weather on mobile